Airfield :
LOGIN :

Register | Disclaimer

   EN    FR    IT 

 










Legend :    VFR   Marginal VFR   IFR   Intensive IFR   Very Intensive IFR
Visi :
Ceiling :
>= 8 km
>= 3000ft
5 to 8 km
1000 to 3000 ft
1500m to 5 km
500 to 1000 ft
800 to 1500m
200 to 500 ft
< 800m
< 200 ft
Symbols :   Thunderstorms  Fog  Heavy snow  Heavy precipitations  Wind > 20 kt
SIGMETs :     Misc.  Thunderstorms  Icing  Turbulence  Mountain Waves  Volcanic Ashes






- Airport Elevation : 19 ft
- IATA code : VTS


EVVA - Ventspils Int.

CURRENT METAR :
  • 202250Z AUTO 17014KT CAVOK 04/03 Q1009

EXPIRED METARs :
  • 202220Z AUTO 17013KT 9999 BKN032 04/03 Q1009
  • 202150Z AUTO 17011KT 9999 BKN031 04/03 Q1010
  • 202120Z AUTO 18013KT 9999 OVC023 04/03 Q1011
  • 202050Z AUTO 17014KT 9999 BKN030 OVC037 04/03 Q1011
  • 202020Z AUTO 18012KT 9999 SCT024 SCT030 BKN038 04/03 Q1012

TAF N/A



MET'MAP, your aeronautical weather chart ! - Copyright ORBIFLY December 2007 - Disclaimer

ORBIFLY MET'MAP TEAM :

Programming & Development : Alexandra Zaïnal
Concept & original design : Baudouin d'Aumeries
Assistance for programming : Marc-Olivier Méhu
Technical & hardware support : Manuel Goepfert

Contact : metmap@orbifly.com




SOURCES & CREDITS :

   NOAA